Time;durP1;ratioP1;P1;durP2;ratioP2;P2;SDS_P1;SDS_P2;PMS_P1;PMS_P2;Temp;Humidity;BMP_temperature;BMP_pressure;BME280_temperature;BME280_humidity;BME280_pressure;Samples;Min_cycle;Max_cycle;Signal;HPM_P1;HPM_P2
2022/03/26 00:00:17;;;;;;;42.53;28.73;;;6.70;99.90;;;;;;5063335;28;20227;-47
2022/03/26 00:02:45;;;;;;;49.42;32.20;;;6.70;99.90;;;;;;5063722;28;20208;-45
2022/03/26 00:05:13;;;;;;;56.28;30.63;;;6.70;99.90;;;;;;5063052;28;20402;-47
2022/03/26 00:07:41;;;;;;;45.97;30.70;;;6.80;99.90;;;;;;5062690;28;20223;-46
2022/03/26 00:10:10;;;;;;;46.40;31.73;;;6.70;99.90;;;;;;5061508;28;20196;-46
2022/03/26 00:12:39;;;;;;;47.42;27.80;;;6.50;99.90;;;;;;5062680;28;20429;-48
2022/03/26 00:15:08;;;;;;;44.03;29.48;;;6.50;99.90;;;;;;5061888;28;20418;-49
2022/03/26 00:17:35;;;;;;;54.25;26.40;;;6.60;99.90;;;;;;5062527;28;20204;-49
2022/03/26 00:20:03;;;;;;;44.60;28.45;;;6.60;99.90;;;;;;5061863;28;20506;-46
2022/03/26 00:22:31;;;;;;;55.63;29.58;;;6.60;99.90;;;;;;5062586;28;20199;-48
2022/03/26 00:24:58;;;;;;;48.22;27.55;;;6.70;99.90;;;;;;5061847;28;20502;-46
2022/03/26 00:27:25;;;;;;;43.65;28.23;;;6.60;99.90;;;;;;5061881;28;20223;-47
2022/03/26 00:29:52;;;;;;;41.88;26.85;;;6.60;99.90;;;;;;5061829;28;20269;-47
2022/03/26 00:32:19;;;;;;;40.13;26.02;;;6.50;99.90;;;;;;5062739;28;20210;-47
2022/03/26 00:34:47;;;;;;;48.65;26.75;;;6.30;99.90;;;;;;5065152;28;20203;-46
2022/03/26 00:37:14;;;;;;;40.78;25.85;;;6.40;99.90;;;;;;5063246;28;20210;-46
2022/03/26 00:39:42;;;;;;;40.75;24.52;;;6.50;99.90;;;;;;5062577;28;20200;-46
2022/03/26 00:42:10;;;;;;;38.17;25.15;;;6.60;99.90;;;;;;5061558;28;20220;-48
2022/03/26 00:44:38;;;;;;;34.88;25.27;;;6.60;99.90;;;;;;5062344;28;20200;-47
2022/03/26 00:47:06;;;;;;;41.85;27.38;;;6.60;99.90;;;;;;5064015;28;20234;-46
2022/03/26 00:49:33;;;;;;;39.60;23.00;;;6.50;99.90;;;;;;5063229;28;20195;-48
2022/03/26 00:52:01;;;;;;;43.05;28.33;;;6.50;99.90;;;;;;5061479;28;20261;-44
2022/03/26 00:54:30;;;;;;;40.58;26.85;;;6.50;99.90;;;;;;5060305;28;20203;-46
2022/03/26 00:56:57;;;;;;;38.85;24.85;;;6.50;99.90;;;;;;5061463;28;20254;-47
2022/03/26 00:59:25;;;;;;;48.00;27.10;;;6.50;99.90;;;;;;5061686;28;20245;-47
2022/03/26 01:01:55;;;;;;;41.08;23.80;;;6.50;99.90;;;;;;5061686;28;20227;-45
2022/03/26 01:04:27;;;;;;;40.50;25.17;;;6.50;99.90;;;;;;5061324;28;20200;-45
2022/03/26 01:06:56;;;;;;;41.17;24.15;;;6.40;99.90;;;;;;5061462;28;20219;-47
2022/03/26 01:09:23;;;;;;;53.10;25.98;;;6.40;99.90;;;;;;5061658;28;20191;-48
2022/03/26 01:11:50;;;;;;;34.72;23.23;;;6.30;99.90;;;;;;5061569;28;20215;-46
2022/03/26 01:14:17;;;;;;;42.85;24.98;;;6.30;99.90;;;;;;5062439;28;20251;-47
2022/03/26 01:16:46;;;;;;;37.22;24.63;;;6.30;99.90;;;;;;5061921;28;20198;-46
2022/03/26 01:19:20;;;;;;;36.83;24.08;;;6.30;99.90;;;;;;5062269;28;20202;-47
2022/03/26 01:21:48;;;;;;;36.38;25.13;;;6.30;99.90;;;;;;5060705;28;20216;-45
2022/03/26 01:24:15;;;;;;;35.40;24.02;;;6.20;99.90;;;;;;5061575;28;20196;-46
2022/03/26 01:26:46;;;;;;;34.45;23.08;;;6.10;99.90;;;;;;5060889;28;20187;-48
2022/03/26 01:29:13;;;;;;;42.35;25.98;;;6.20;99.90;;;;;;5061003;28;20200;-49
2022/03/26 01:31:41;;;;;;;44.08;27.55;;;6.20;99.90;;;;;;5061232;28;20224;-47
2022/03/26 01:34:08;;;;;;;48.10;27.80;;;6.20;99.90;;;;;;5059583;28;20483;-46
2022/03/26 01:36:35;;;;;;;45.42;28.25;;;6.00;99.90;;;;;;5054105;28;20210;-46
2022/03/26 01:39:03;;;;;;;41.65;25.63;;;6.10;99.90;;;;;;5052410;28;20430;-46
2022/03/26 01:41:30;;;;;;;42.67;27.50;;;6.10;99.90;;;;;;5060970;28;20227;-46
2022/03/26 01:43:58;;;;;;;43.28;27.42;;;6.20;99.90;;;;;;5060295;28;20196;-49
2022/03/26 01:46:26;;;;;;;36.90;22.92;;;6.10;99.90;;;;;;5060246;28;20209;-49
2022/03/26 01:48:53;;;;;;;45.28;25.00;;;6.00;99.90;;;;;;5060122;28;20223;-49
2022/03/26 01:51:21;;;;;;;47.42;27.25;;;6.00;99.90;;;;;;5060726;28;20227;-46
2022/03/26 01:53:51;;;;;;;37.53;22.40;;;6.00;99.90;;;;;;5060551;28;20577;-47
2022/03/26 01:56:21;;;;;;;42.15;26.52;;;6.00;99.90;;;;;;5060625;28;20290;-48
2022/03/26 01:58:49;;;;;;;39.00;23.73;;;6.00;99.90;;;;;;5059340;28;20207;-46
2022/03/26 02:01:17;;;;;;;43.67;24.42;;;6.00;99.90;;;;;;5060329;28;20290;-48
2022/03/26 02:03:50;;;;;;;35.33;21.48;;;5.90;99.90;;;;;;5061109;28;20222;-48
2022/03/26 02:06:19;;;;;;;41.05;24.58;;;5.60;99.90;;;;;;5061079;28;20207;-47
2022/03/26 02:08:50;;;;;;;38.20;24.10;;;5.60;99.90;;;;;;5062850;28;20242;-47
2022/03/26 02:11:18;;;;;;;40.47;25.00;;;5.60;99.90;;;;;;5071122;28;20328;-49
2022/03/26 02:13:57;;;;;;;39.70;25.45;;;5.70;99.90;;;;;;5066986;28;20218;-47
2022/03/26 02:16:25;;;;;;;33.05;22.65;;;5.70;99.90;;;;;;5065774;28;20195;-47
2022/03/26 02:18:54;;;;;;;38.72;22.05;;;5.70;99.90;;;;;;5068883;28;20231;-50
2022/03/26 02:21:22;;;;;;;36.47;25.02;;;5.70;99.90;;;;;;5071668;28;20292;-50
2022/03/26 02:23:50;;;;;;;36.85;22.95;;;5.70;99.90;;;;;;5073045;28;20226;-49
2022/03/26 02:26:25;;;;;;;39.03;24.38;;;5.80;99.90;;;;;;5067268;28;20205;-47
2022/03/26 02:28:54;;;;;;;36.90;22.75;;;5.80;99.90;;;;;;5066666;28;20342;-47
2022/03/26 02:31:25;;;;;;;35.38;23.00;;;5.70;99.90;;;;;;5062347;28;20216;-49
2022/03/26 02:33:54;;;;;;;32.55;22.60;;;5.80;99.90;;;;;;5060921;28;20215;-48
2022/03/26 02:36:22;;;;;;;41.72;26.00;;;5.70;99.90;;;;;;5061779;28;20262;-47
2022/03/26 02:38:49;;;;;;;35.70;22.00;;;5.50;99.90;;;;;;5061074;28;20245;-47
2022/03/26 02:41:16;;;;;;;39.20;23.42;;;5.60;99.90;;;;;;5061717;28;20229;-47
2022/03/26 02:43:43;;;;;;;36.17;23.38;;;5.60;99.90;;;;;;5061846;28;20433;-53
2022/03/26 02:46:10;;;;;;;42.75;23.27;;;5.60;99.90;;;;;;5061604;28;20253;-47
2022/03/26 02:48:39;;;;;;;34.55;23.05;;;5.60;99.90;;;;;;5061389;28;20223;-48
2022/03/26 02:51:09;;;;;;;36.70;22.30;;;5.60;99.90;;;;;;5060819;28;20250;-47
2022/03/26 02:53:36;;;;;;;39.58;22.25;;;5.60;99.90;;;;;;5060258;28;20225;-50
2022/03/26 02:56:04;;;;;;;42.63;22.40;;;5.60;99.90;;;;;;5059840;28;20234;-46
2022/03/26 02:58:31;;;;;;;34.10;24.23;;;5.50;99.90;;;;;;5060463;28;20519;-47
2022/03/26 03:00:59;;;;;;;32.38;20.23;;;5.50;99.90;;;;;;5059357;28;20561;-54
2022/03/26 03:03:26;;;;;;;38.55;22.38;;;5.50;99.90;;;;;;5061305;28;20214;-45
2022/03/26 03:05:54;;;;;;;37.05;24.48;;;5.50;99.90;;;;;;5060163;28;20199;-46
2022/03/26 03:08:22;;;;;;;36.63;22.15;;;5.40;99.90;;;;;;5061677;28;20454;-46
2022/03/26 03:10:49;;;;;;;38.28;24.45;;;5.50;99.90;;;;;;5063089;28;20215;-52
2022/03/26 03:13:21;;;;;;;37.25;22.35;;;5.50;99.90;;;;;;5070519;28;20446;-46
2022/03/26 03:15:51;;;;;;;35.80;22.58;;;5.50;99.90;;;;;;5060835;28;20202;-46
2022/03/26 03:18:19;;;;;;;29.70;21.80;;;5.50;99.90;;;;;;5059575;28;20202;-48
2022/03/26 03:20:48;;;;;;;30.60;20.38;;;5.50;99.90;;;;;;5060723;28;20220;-49
2022/03/26 03:23:15;;;;;;;44.60;23.70;;;5.50;99.90;;;;;;5062298;28;20203;-47
2022/03/26 03:25:43;;;;;;;41.97;21.85;;;5.50;99.90;;;;;;5060497;28;20199;-46
2022/03/26 03:28:10;;;;;;;34.30;21.85;;;5.40;99.90;;;;;;5060484;28;20223;-46
2022/03/26 03:30:37;;;;;;;39.15;22.60;;;5.30;99.90;;;;;;5059881;28;20454;-45
2022/03/26 03:33:06;;;;;;;44.05;21.70;;;5.40;99.90;;;;;;5064499;28;20287;-46
2022/03/26 03:35:34;;;;;;;34.35;22.25;;;5.30;99.90;;;;;;5061470;28;20295;-49
2022/03/26 03:38:02;;;;;;;34.60;22.17;;;5.30;99.90;;;;;;5062452;28;20537;-46
2022/03/26 03:40:29;;;;;;;39.28;24.95;;;5.30;99.90;;;;;;5061835;28;20436;-49
2022/03/26 03:42:57;;;;;;;36.70;22.02;;;5.10;99.90;;;;;;5059834;28;20564;-45
2022/03/26 03:45:31;;;;;;;32.03;20.08;;;5.20;99.90;;;;;;5061945;28;20263;-45
2022/03/26 03:47:58;;;;;;;38.67;23.35;;;5.20;99.90;;;;;;5063081;28;20328;-45
2022/03/26 03:50:26;;;;;;;31.58;19.17;;;5.20;99.90;;;;;;5063069;28;20292;-45
2022/03/26 03:52:53;;;;;;;25.58;20.50;;;5.10;99.90;;;;;;5062930;28;20196;-47
2022/03/26 03:55:21;;;;;;;31.55;20.13;;;4.90;99.90;;;;;;5062915;28;20417;-47
2022/03/26 03:57:48;;;;;;;33.35;21.00;;;5.00;99.90;;;;;;5061639;28;20248;-46
2022/03/26 04:00:16;;;;;;;35.15;19.60;;;4.90;99.90;;;;;;5062528;28;20576;-45
2022/03/26 04:02:43;;;;;;;30.23;21.88;;;4.90;99.90;;;;;;5063435;28;20200;-50
2022/03/26 04:05:13;;;;;;;34.03;20.83;;;5.00;99.90;;;;;;5062838;28;20278;-47
2022/03/26 04:07:44;;;;;;;31.90;20.70;;;5.00;99.90;;;;;;5062672;28;20223;-46
2022/03/26 04:10:12;;;;;;;30.95;20.23;;;5.10;99.90;;;;;;5062492;28;20222;-47
2022/03/26 04:12:41;;;;;;;31.77;19.83;;;5.00;99.90;;;;;;5062196;28;20253;-47
2022/03/26 04:15:10;;;;;;;28.73;20.65;;;5.00;99.90;;;;;;5062178;28;20437;-46
2022/03/26 04:17:38;;;;;;;36.50;22.55;;;5.20;99.90;;;;;;5061918;28;20215;-48
2022/03/26 04:20:10;;;;;;;33.65;20.75;;;5.20;99.90;;;;;;5062175;28;20468;-45
2022/03/26 04:22:39;;;;;;;31.65;20.45;;;5.00;99.90;;;;;;5062216;28;20611;-46
2022/03/26 04:25:07;;;;;;;31.92;22.27;;;5.30;99.90;;;;;;5062063;28;20261;-45
2022/03/26 04:27:34;;;;;;;37.78;22.98;;;5.30;99.90;;;;;;5062231;28;20314;-47
2022/03/26 04:30:03;;;;;;;28.17;19.42;;;5.10;99.90;;;;;;5061576;28;20206;-47
2022/03/26 04:32:31;;;;;;;36.38;21.65;;;5.20;99.90;;;;;;5062440;28;20430;-46
2022/03/26 04:34:58;;;;;;;33.65;22.50;;;5.30;99.90;;;;;;5061868;28;20237;-47
2022/03/26 04:37:26;;;;;;;34.40;21.30;;;5.40;99.90;;;;;;5062186;28;20203;-47
2022/03/26 04:39:53;;;;;;;37.22;22.95;;;5.40;99.90;;;;;;5061616;28;20199;-46
2022/03/26 04:42:21;;;;;;;33.78;20.63;;;5.40;99.90;;;;;;5061655;28;20422;-45
2022/03/26 04:44:48;;;;;;;32.38;19.67;;;5.30;99.90;;;;;;5061670;28;20203;-46
2022/03/26 04:47:16;;;;;;;30.30;21.83;;;5.30;99.90;;;;;;5061886;28;20241;-47
2022/03/26 04:49:43;;;;;;;31.70;20.80;;;5.40;99.90;;;;;;5062085;28;20241;-46
2022/03/26 04:52:10;;;;;;;27.83;19.45;;;5.40;99.90;;;;;;5061423;28;20277;-47
2022/03/26 04:54:38;;;;;;;38.80;20.92;;;5.40;99.90;;;;;;5061722;28;20210;-47
2022/03/26 04:57:05;;;;;;;29.55;20.55;;;5.30;99.90;;;;;;5060609;28;20268;-46
2022/03/26 04:59:33;;;;;;;30.35;19.70;;;5.30;99.90;;;;;;5061545;28;20513;-46
2022/03/26 05:02:00;;;;;;;30.52;20.95;;;5.50;99.90;;;;;;5060998;28;20231;-45
2022/03/26 05:04:30;;;;;;;30.35;19.83;;;5.40;99.90;;;;;;5061545;28;20206;-46
2022/03/26 05:06:58;;;;;;;28.13;20.63;;;5.50;99.90;;;;;;5061255;28;20415;-47
2022/03/26 05:09:25;;;;;;;31.20;20.27;;;5.60;99.90;;;;;;5061733;28;20596;-46
2022/03/26 05:11:53;;;;;;;36.92;22.58;;;5.70;99.90;;;;;;5061763;28;20277;-47
2022/03/26 05:14:20;;;;;;;34.90;21.20;;;5.80;99.90;;;;;;5061699;28;20564;-45
2022/03/26 05:16:47;;;;;;;30.30;19.98;;;6.00;99.90;;;;;;5061851;28;20203;-46
2022/03/26 05:19:14;;;;;;;37.83;23.10;;;6.20;99.90;;;;;;5061324;28;20429;-45
2022/03/26 05:21:42;;;;;;;32.85;21.33;;;6.40;99.90;;;;;;5061484;28;20414;-46
2022/03/26 05:24:09;;;;;;;35.75;22.08;;;6.60;99.90;;;;;;5060819;28;20200;-46
2022/03/26 05:26:37;;;;;;;32.75;20.10;;;6.70;99.90;;;;;;5061598;28;20199;-46
2022/03/26 05:29:04;;;;;;;30.55;19.65;;;7.10;99.90;;;;;;5060860;28;20449;-48
2022/03/26 05:31:31;;;;;;;30.50;18.80;;;7.50;99.90;;;;;;5061442;28;20261;-46
2022/03/26 05:33:58;;;;;;;24.30;17.17;;;7.80;99.90;;;;;;5061195;28;20223;-47
2022/03/26 05:36:26;;;;;;;25.85;18.55;;;8.30;99.90;;;;;;5062035;28;20503;-46
2022/03/26 05:38:55;;;;;;;33.17;19.65;;;8.90;99.90;;;;;;5061621;28;20246;-50
2022/03/26 05:41:23;;;;;;;25.10;17.90;;;9.30;99.90;;;;;;5061867;28;20213;-47
2022/03/26 05:43:50;;;;;;;27.83;17.80;;;9.90;99.90;;;;;;5062390;28;20216;-47
2022/03/26 05:46:19;;;;;;;22.63;17.30;;;10.50;99.90;;;;;;5062035;28;20241;-46
2022/03/26 05:48:46;;;;;;;28.42;18.95;;;10.90;99.90;;;;;;5060980;28;20222;-47
2022/03/26 05:51:15;;;;;;;22.77;15.18;;;11.50;99.90;;;;;;5057042;22;20233;-53
2022/03/26 05:53:44;;;;;;;26.33;18.27;;;11.70;99.90;;;;;;4994240;28;20209;-51
2022/03/26 05:56:11;;;;;;;24.67;16.13;;;12.00;99.90;;;;;;4997867;28;20209;-52
2022/03/26 05:58:39;;;;;;;26.33;15.77;;;12.40;99.90;;;;;;5000913;28;20320;-53
2022/03/26 06:01:06;;;;;;;28.50;17.98;;;12.50;99.90;;;;;;5000532;28;20236;-51
2022/03/26 06:03:34;;;;;;;30.10;16.95;;;12.80;99.90;;;;;;5000799;28;20210;-54
2022/03/26 06:06:02;;;;;;;20.92;16.10;;;12.90;99.90;;;;;;5000924;28;20365;-49
2022/03/26 06:08:29;;;;;;;28.92;19.23;;;13.20;99.90;;;;;;4999877;28;20221;-49
2022/03/26 06:10:56;;;;;;;20.67;16.30;;;13.60;99.90;;;;;;5000538;28;20218;-52
2022/03/26 06:13:23;;;;;;;33.78;19.63;;;14.30;99.90;;;;;;5000402;28;20390;-53
2022/03/26 06:15:54;;;;;;;22.40;16.73;;;14.80;99.90;;;;;;5000485;28;20200;-52
2022/03/26 06:18:21;;;;;;;26.13;17.83;;;15.30;99.90;;;;;;5000549;28;20441;-50
2022/03/26 06:20:48;;;;;;;28.43;18.70;;;15.80;99.90;;;;;;5000171;28;20500;-54
2022/03/26 06:23:15;;;;;;;24.10;16.90;;;15.70;99.90;;;;;;5000285;28;20410;-51
2022/03/26 06:25:42;;;;;;;27.03;17.70;;;15.80;99.90;;;;;;5000348;28;20412;-48
2022/03/26 06:28:13;;;;;;;31.20;16.57;;;16.10;99.90;;;;;;4999763;28;20529;-54
2022/03/26 06:30:40;;;;;;;25.73;16.90;;;16.00;99.90;;;;;;5000598;28;20474;-54
2022/03/26 06:33:08;;;;;;;26.37;15.63;;;16.50;99.90;;;;;;5000518;28;20474;-52
2022/03/26 06:35:35;;;;;;;27.50;19.10;;;17.40;99.90;;;;;;5000579;28;20409;-52
2022/03/26 06:38:02;;;;;;;19.90;16.83;;;18.30;99.90;;;;;;5000387;28;20502;-53
2022/03/26 06:40:30;;;;;;;20.97;16.77;;;19.20;98.30;;;;;;5000081;28;20414;-53
2022/03/26 06:42:57;;;;;;;28.93;16.90;;;19.80;95.80;;;;;;5000573;28;20408;-55
2022/03/26 06:45:25;;;;;;;20.13;16.07;;;20.40;94.10;;;;;;5000483;28;20487;-52
2022/03/26 06:47:52;;;;;;;35.50;18.50;;;21.00;92.00;;;;;;4999978;28;20498;-54
2022/03/26 06:50:19;;;;;;;22.77;15.73;;;21.80;89.30;;;;;;5000100;28;20794;-55
2022/03/26 06:52:50;;;;;;;20.07;13.93;;;22.10;84.80;;;;;;5000091;28;20654;-49
2022/03/26 06:55:19;;;;;;;25.43;16.90;;;22.10;83.60;;;;;;5000323;28;20406;-53
2022/03/26 06:57:48;;;;;;;23.33;16.33;;;22.40;81.80;;;;;;5000306;28;20438;-58
2022/03/26 07:00:17;;;;;;;29.03;15.63;;;22.90;79.10;;;;;;5000023;28;20431;-52
2022/03/26 07:02:44;;;;;;;22.13;16.30;;;23.90;75.40;;;;;;5000121;28;20431;-56
2022/03/26 07:05:12;;;;;;;24.77;16.37;;;24.50;72.30;;;;;;5000190;28;20874;-51
2022/03/26 07:07:39;;;;;;;19.13;14.90;;;24.50;70.40;;;;;;5000672;28;20870;-55
2022/03/26 07:10:07;;;;;;;21.07;15.87;;;23.90;70.50;;;;;;4999793;28;20529;-53
2022/03/26 07:12:34;;;;;;;23.83;16.23;;;23.90;70.70;;;;;;5000606;28;20616;-54
2022/03/26 07:15:02;;;;;;;22.50;14.80;;;23.60;70.50;;;;;;4999917;28;20856;-55
2022/03/26 07:17:30;;;;;;;18.37;14.40;;;23.40;70.30;;;;;;4999112;28;20440;-52
2022/03/26 07:19:57;;;;;;;29.23;15.50;;;22.40;72.30;;;;;;5001219;28;20428;-52
2022/03/26 07:22:29;;;;;;;24.07;15.60;;;21.90;74.10;;;;;;5003696;28;20451;-54
2022/03/26 07:24:57;;;;;;;21.20;13.77;;;22.30;73.80;;;;;;5003330;28;20563;-54
2022/03/26 07:27:24;;;;;;;19.87;15.13;;;23.00;72.90;;;;;;5003813;28;20633;-53
2022/03/26 07:29:51;;;;;;;21.33;14.17;;;23.50;71.60;;;;;;5002970;28;20471;-54
2022/03/26 07:32:18;;;;;;;26.83;14.63;;;22.50;71.90;;;;;;4995757;28;20860;-50
2022/03/26 07:34:45;;;;;;;23.90;14.20;;;21.70;74.70;;;;;;5003282;28;20458;-56
2022/03/26 07:37:13;;;;;;;22.80;14.60;;;21.70;75.00;;;;;;5003304;28;20762;-54
2022/03/26 07:39:41;;;;;;;20.23;13.67;;;23.00;73.10;;;;;;5003747;28;20824;-57
2022/03/26 07:42:09;;;;;;;22.23;13.10;;;24.30;69.20;;;;;;5002836;28;20465;-54
2022/03/26 07:44:37;;;;;;;19.93;14.67;;;24.80;66.70;;;;;;5003368;28;20493;-50
2022/03/26 07:47:05;;;;;;;16.77;14.97;;;24.10;68.50;;;;;;5002791;28;20688;-55
2022/03/26 07:49:33;;;;;;;17.23;14.33;;;25.20;66.40;;;;;;5002871;28;20500;-55
2022/03/26 07:52:01;;;;;;;22.60;13.70;;;25.60;64.70;;;;;;5002721;28;20459;-56
2022/03/26 07:54:30;;;;;;;17.50;12.97;;;25.90;63.70;;;;;;5002786;28;20844;-54
2022/03/26 07:56:58;;;;;;;24.27;13.73;;;24.60;64.60;;;;;;5002990;28;20763;-56
2022/03/26 07:59:25;;;;;;;19.03;13.00;;;23.40;66.70;;;;;;5002221;28;20486;-55
2022/03/26 08:01:52;;;;;;;16.57;12.90;;;22.40;69.40;;;;;;5002970;28;20881;-56
2022/03/26 08:04:19;;;;;;;17.77;12.90;;;22.20;70.70;;;;;;5002138;28;20445;-58
2022/03/26 08:06:47;;;;;;;17.47;13.00;;;22.90;69.50;;;;;;5002970;28;20503;-53
2022/03/26 08:09:14;;;;;;;16.63;12.50;;;22.50;69.70;;;;;;5002351;28;20471;-55
2022/03/26 08:11:42;;;;;;;18.83;11.50;;;22.80;69.30;;;;;;5002537;28;20447;-52
2022/03/26 08:14:10;;;;;;;17.07;11.83;;;22.80;69.10;;;;;;5002786;28;20424;-53
2022/03/26 08:16:37;;;;;;;19.07;12.33;;;22.90;68.50;;;;;;5001947;28;20459;-50
2022/03/26 08:19:05;;;;;;;19.33;13.13;;;22.40;69.90;;;;;;5001945;28;20669;-56
2022/03/26 08:21:35;;;;;;;21.70;12.23;;;22.40;69.50;;;;;;5002056;28;20459;-53
2022/03/26 08:24:03;;;;;;;25.57;12.80;;;22.40;69.60;;;;;;5002073;28;20470;-53
2022/03/26 08:26:35;;;;;;;21.27;12.77;;;22.10;70.40;;;;;;4997986;28;20443;-55
2022/03/26 08:29:02;;;;;;;18.87;12.47;;;21.50;72.30;;;;;;4997362;28;20479;-50
2022/03/26 08:31:31;;;;;;;15.40;11.53;;;21.70;72.10;;;;;;5007116;28;20455;-56
2022/03/26 08:33:59;;;;;;;15.13;12.73;;;22.40;71.20;;;;;;5001673;28;20444;-53
2022/03/26 08:36:27;;;;;;;16.03;12.30;;;23.30;69.40;;;;;;5002109;28;20686;-53
2022/03/26 08:38:54;;;;;;;18.57;12.87;;;23.40;67.50;;;;;;5001703;28;20435;-55
2022/03/26 08:41:23;;;;;;;17.50;14.23;;;23.50;67.50;;;;;;5002088;28;20455;-56
2022/03/26 08:43:51;;;;;;;21.90;13.17;;;22.70;68.10;;;;;;5001849;28;20438;-55
2022/03/26 08:46:19;;;;;;;19.57;12.77;;;22.20;69.40;;;;;;5001019;28;20429;-51
2022/03/26 08:48:48;;;;;;;21.00;12.70;;;21.70;69.60;;;;;;5001643;28;20619;-53
2022/03/26 08:51:16;;;;;;;26.53;14.87;;;20.50;72.60;;;;;;5001277;28;20471;-55
2022/03/26 08:53:44;;;;;;;27.27;12.77;;;20.70;71.60;;;;;;5001689;28;20535;-56
2022/03/26 08:56:12;;;;;;;21.00;13.23;;;20.80;71.30;;;;;;5001622;28;20801;-55
2022/03/26 08:58:41;;;;;;;23.40;14.27;;;21.20;69.00;;;;;;5002093;28;20417;-53
2022/03/26 09:01:08;;;;;;;19.37;13.23;;;20.90;69.70;;;;;;5001288;28;20449;-53
2022/03/26 09:03:37;;;;;;;21.77;13.07;;;20.30;71.60;;;;;;5001685;28;20461;-55
2022/03/26 09:06:10;;;;;;;22.90;12.27;;;20.50;71.90;;;;;;5001783;28;20473;-53
2022/03/26 09:08:40;;;;;;;16.10;10.87;;;21.00;69.90;;;;;;5000951;28;20443;-54
2022/03/26 09:11:10;;;;;;;22.53;14.57;;;21.10;70.00;;;;;;4997403;28;20486;-54
2022/03/26 09:13:46;;;;;;;16.87;12.20;;;20.90;71.00;;;;;;5000588;28;20430;-55
2022/03/26 09:16:13;;;;;;;20.20;14.03;;;21.10;71.00;;;;;;5000935;28;20417;-52
2022/03/26 09:18:41;;;;;;;20.60;12.53;;;21.30;69.90;;;;;;5000987;28;20570;-53
2022/03/26 09:21:08;;;;;;;18.17;12.33;;;21.40;68.80;;;;;;5001108;28;20813;-54
2022/03/26 09:23:35;;;;;;;20.37;13.23;;;21.00;70.00;;;;;;5001025;28;20773;-53
2022/03/26 09:26:04;;;;;;;20.13;13.13;;;20.10;72.60;;;;;;5000437;28;20439;-53
2022/03/26 09:28:31;;;;;;;18.30;12.30;;;19.50;74.40;;;;;;5001728;28;20430;-51
2022/03/26 09:30:59;;;;;;;20.27;11.87;;;19.50;75.30;;;;;;5000590;28;20828;-50
2022/03/26 09:33:26;;;;;;;26.10;12.30;;;19.00;76.70;;;;;;5001060;28;20415;-51
2022/03/26 09:35:54;;;;;;;26.63;15.73;;;18.40;77.60;;;;;;5001118;28;20468;-56
2022/03/26 09:38:25;;;;;;;19.00;13.60;;;18.10;79.30;;;;;;5001537;28;20413;-50
2022/03/26 09:40:53;;;;;;;17.83;12.77;;;17.80;80.40;;;;;;5000595;28;20493;-54
2022/03/26 09:43:22;;;;;;;28.43;14.07;;;17.70;80.90;;;;;;4998371;28;20462;-54
2022/03/26 09:45:49;;;;;;;22.47;13.63;;;17.90;80.20;;;;;;5000621;28;20769;-52
2022/03/26 09:48:16;;;;;;;16.70;9.97;;;18.50;78.70;;;;;;4998273;28;20750;-54
2022/03/26 09:50:43;;;;;;;25.10;12.53;;;18.50;78.20;;;;;;4994788;28;20511;-50
2022/03/26 09:53:12;;;;;;;31.37;12.47;;;18.20;78.80;;;;;;4996235;28;20414;-53
2022/03/26 09:55:42;;;;;;;21.77;11.33;;;17.80;79.20;;;;;;4996387;28;20445;-51
2022/03/26 09:58:10;;;;;;;14.97;9.97;;;17.50;79.20;;;;;;4996909;28;20414;-54
2022/03/26 10:00:37;;;;;;;17.77;9.93;;;17.40;79.10;;;;;;4997515;28;20517;-52
2022/03/26 10:03:04;;;;;;;19.00;11.43;;;17.20;79.00;;;;;;4997540;28;20454;-51
2022/03/26 10:05:34;;;;;;;16.60;10.10;;;17.10;80.00;;;;;;5000485;28;20652;-52
2022/03/26 10:08:19;;;;;;;18.37;9.00;;;17.00;79.40;;;;;;4994735;28;20791;-54
2022/03/26 10:10:48;;;;;;;18.43;9.47;;;16.80;79.90;;;;;;5002136;28;20500;-55
2022/03/26 10:13:36;;;;;;;15.60;9.90;;;16.80;81.10;;;;;;5000428;28;20445;-54
2022/03/26 10:16:06;;;;;;;15.60;9.93;;;16.80;82.10;;;;;;5001205;28;20412;-52
2022/03/26 10:18:38;;;;;;;9.60;7.37;;;16.90;82.30;;;;;;5000747;28;20415;-53
2022/03/26 10:21:08;;;;;;;9.73;8.33;;;17.00;82.80;;;;;;5000825;28;20514;-55
2022/03/26 10:23:49;;;;;;;11.77;6.93;;;16.90;83.10;;;;;;5000183;28;20676;-52
2022/03/26 10:26:24;;;;;;;16.57;8.90;;;16.80;84.00;;;;;;4981279;28;20436;-49
2022/03/26 10:28:56;;;;;;;13.97;8.10;;;16.60;85.00;;;;;;4981033;28;20459;-52
2022/03/26 10:34:21;;;;;;;9.53;6.67;;;16.70;85.70;;;;;;4993047;28;20729;-54
2022/03/26 10:36:54;;;;;;;14.57;8.90;;;16.60;86.00;;;;;;4998994;28;20412;-52
2022/03/26 10:39:27;;;;;;;9.27;7.33;;;16.50;87.00;;;;;;4999564;28;20498;-53
2022/03/26 10:41:55;;;;;;;9.23;8.20;;;16.60;87.10;;;;;;4999075;28;20796;-53
2022/03/26 10:44:29;;;;;;;8.50;7.07;;;16.90;86.60;;;;;;4999833;28;20418;-53
2022/03/26 10:47:02;;;;;;;12.70;7.80;;;17.10;86.40;;;;;;4999606;28;20456;-52
2022/03/26 10:49:36;;;;;;;12.70;6.57;;;17.20;86.60;;;;;;5007397;28;20478;-52
2022/03/26 10:52:10;;;;;;;17.37;8.03;;;17.30;87.60;;;;;;4997349;28;20781;-53
2022/03/26 10:54:37;;;;;;;13.50;7.50;;;17.50;86.90;;;;;;4998452;28;20446;-52
2022/03/26 10:57:08;;;;;;;11.63;6.80;;;17.60;87.20;;;;;;4998747;28;20756;-53
2022/03/26 10:59:36;;;;;;;9.13;7.07;;;17.80;86.90;;;;;;5002287;28;20510;-48
2022/03/26 11:02:03;;;;;;;8.27;6.40;;;17.90;86.30;;;;;;5002565;28;20463;-49
2022/03/26 11:04:30;;;;;;;9.53;7.20;;;17.90;87.00;;;;;;5002970;28;20542;-52
2022/03/26 11:06:59;;;;;;;9.57;6.63;;;17.80;87.70;;;;;;5001286;28;20474;-54
2022/03/26 11:09:27;;;;;;;10.67;5.90;;;17.80;88.00;;;;;;5002549;28;20493;-52
2022/03/26 11:11:58;;;;;;;8.40;5.20;;;17.70;88.60;;;;;;5002260;28;20645;-50
2022/03/26 11:14:37;;;;;;;6.87;5.90;;;17.80;88.90;;;;;;4996065;28;20465;-52
2022/03/26 11:17:35;;;;;;;7.97;5.77;;;17.70;89.50;;;;;;5002293;28;20426;-51
2022/03/26 11:20:27;;;;;;;5.47;4.97;;;17.50;90.30;;;;;;5002892;28;20414;-49
2022/03/26 11:23:24;;;;;;;8.83;5.20;;;17.70;90.30;;;;;;5002430;28;20431;-55
2022/03/26 11:26:29;;;;;;;7.63;4.20;;;17.90;89.90;;;;;;4984619;28;20507;-51
2022/03/26 11:29:06;;;;;;;7.23;3.40;;;17.80;89.70;;;;;;5002567;28;20443;-53
2022/03/26 11:32:02;;;;;;;8.03;4.60;;;17.80;89.00;;;;;;5003330;28;20451;-50
2022/03/26 11:34:36;;;;;;;6.43;4.43;;;17.80;88.70;;;;;;5003207;28;20457;-51
2022/03/26 11:37:21;;;;;;;3.77;3.47;;;17.90;88.80;;;;;;5002217;28;20766;-52
2022/03/26 11:39:56;;;;;;;4.10;3.80;;;17.80;89.00;;;;;;5002741;28;20777;-55
2022/03/26 11:42:37;;;;;;;3.87;3.57;;;17.70;89.50;;;;;;5002389;28;20500;-51
2022/03/26 11:51:16;;;;;;;6.20;5.60;;;17.80;90.40;;;;;;5003015;28;20479;-52
2022/03/26 11:53:47;;;;;;;5.90;5.17;;;17.70;90.60;;;;;;5002131;28;20409;-51
2022/03/26 11:56:31;;;;;;;6.63;5.03;;;17.80;90.70;;;;;;5002230;28;20733;-50
2022/03/26 11:59:16;;;;;;;5.30;4.53;;;18.00;90.50;;;;;;5000875;28;20652;-55
2022/03/26 12:01:48;;;;;;;4.97;4.30;;;18.40;90.30;;;;;;5002236;28;20638;-55
2022/03/26 12:04:24;;;;;;;4.73;4.13;;;18.60;88.70;;;;;;5001494;28;20603;-54
2022/03/26 12:06:55;;;;;;;7.70;4.73;;;18.50;88.20;;;;;;5000827;28;20410;-52
2022/03/26 12:09:33;;;;;;;7.77;4.67;;;18.60;88.40;;;;;;5001365;28;20443;-54
2022/03/26 12:12:10;;;;;;;5.43;4.67;;;18.70;87.90;;;;;;5002339;28;20493;-53
2022/03/26 12:15:10;;;;;;;9.67;4.47;;;18.80;87.30;;;;;;5002429;28;20409;-55
2022/03/26 12:17:53;;;;;;;4.53;4.13;;;18.90;87.40;;;;;;5011322;28;20813;-53
2022/03/26 12:20:45;;;;;;;4.30;3.90;;;18.90;86.20;;;;;;4982714;28;20463;-54
2022/03/26 12:23:13;;;;;;;11.07;5.63;;;18.80;86.40;;;;;;4963190;28;20495;-52
2022/03/26 12:25:49;;;;;;;10.10;5.00;;;18.80;87.00;;;;;;4999774;28;20418;-50
2022/03/26 12:28:38;;;;;;;4.67;4.20;;;19.00;87.00;;;;;;4986140;28;20470;-52
2022/03/26 12:31:10;;;;;;;8.07;5.73;;;19.10;86.70;;;;;;5001325;28;20784;-50
2022/03/26 12:33:48;;;;;;;6.37;5.13;;;19.10;87.40;;;;;;5001829;28;20433;-56
2022/03/26 12:36:17;;;;;;;10.97;5.40;;;19.30;86.20;;;;;;4984421;28;20423;-53
2022/03/26 12:38:50;;;;;;;5.23;3.73;;;19.50;84.50;;;;;;5001222;28;20399;-51
2022/03/26 12:41:18;;;;;;;8.53;4.87;;;19.70;84.30;;;;;;5001271;28;20782;-52
2022/03/26 12:43:59;;;;;;;6.40;4.83;;;19.80;83.40;;;;;;4999908;28;20532;-49
2022/03/26 12:46:35;;;;;;;6.37;5.70;;;19.70;83.60;;;;;;4994486;28;20444;-52
2022/03/26 12:49:16;;;;;;;8.17;6.00;;;19.70;84.30;;;;;;5000101;28;20448;-54
2022/03/26 12:51:47;;;;;;;6.47;5.17;;;19.70;84.80;;;;;;5000138;28;20521;-54
2022/03/26 12:54:14;;;;;;;5.67;5.17;;;19.80;84.60;;;;;;5000816;28;20465;-53
2022/03/26 12:56:42;;;;;;;11.20;5.47;;;19.60;84.40;;;;;;5001034;28;20737;-51